Sag Harbor, NY (11963)

11:47 AM EDT on July 28, 2016 (GMT -0400)
Noyac | | Change Station

Elev 135 ft 40.99 °N, 72.33 °W | Updated 35 seconds ago

Scattered Clouds
Scattered Clouds
89.1 °F
Feels Like 102 °F
N
0.0
Wind Variable Wind from South

Today
High -- | Low -- °F
--% Chance of Precip.
Yesterday
High -- | Low -- °F
Precip. -- in
Pressure 29.92 in
Visibility 10.0 miles
Clouds Scattered Clouds 800 ft
Heat Index 102 °F
Dew Point 77 °F
Humidity 68%
Rainfall 0.00 in
Snow Depth Not available.
5:41 AM 8:09 PM
Waning Crescent, 31% visible
METAR KHTO 281535Z AUTO 15006KT 10SM SCT008 26/23 A2992 RMK AO2 T02620225
Pressure 29.92 in
Visibility 10.0 miles
Clouds Scattered Clouds 800 ft
Heat Index 102 °F
Dew Point 77 °F
Humidity 68%
Rainfall 0.00 in
Snow Depth Not available.
5:41 AM 8:09 PM
Waning Crescent, 31% visible
METAR KHTO 281535Z AUTO 15006KT 10SM SCT008 26/23 A2992 RMK AO2 T02620225

10-Day Weather Forecast

Almanac

Astronomy

Jul. 28, 2016 Rise Set
Actual Time
Civil Twilight
Nautical Twilight
Astronomical Twilight
Moon
Length of Visible Light
Length of Day
Tomorrow will be .
, % of the Moon is Illuminated

Today's Extremes

State Highs State Lows

Community

WunderPhotos

Upload Photos

1,928,140 photos uploaded!

WunderBlog® & News

Nearby

Air Quality

  Air Quality AQ Index Pollutant
Not available.

Snow Depth

Station Depth Elevation

Earthquake Activity

City Distance Mag. Time & Date
Minimum magnitude displayed is 2.5.

Coastal Water Temperatures

Place Temperature

Stations

Nearby Weather Stations

Station Location Temp. Windchill Dew Point Humidity Wind Precip. Elev Updated Type
                   

Watches & Warnings

There are currently no watches in effect.